sensor_id;sensor_type;location;lat;lon;timestamp;P1;durP1;ratioP1;P2;durP2;ratioP2
15198;SDS011;7700;48.654;9.070;2022-10-23T00:03:37;7.47;;;4.50;;
15198;SDS011;7700;48.654;9.070;2022-10-23T00:06:03;6.60;;;4.70;;
15198;SDS011;7700;48.654;9.070;2022-10-23T00:08:30;6.80;;;4.43;;
15198;SDS011;7700;48.654;9.070;2022-10-23T00:10:56;8.07;;;4.03;;
15198;SDS011;7700;48.654;9.070;2022-10-23T00:13:22;6.97;;;3.90;;
15198;SDS011;7700;48.654;9.070;2022-10-23T00:15:48;4.70;;;3.77;;
15198;SDS011;7700;48.654;9.070;2022-10-23T00:18:14;8.10;;;3.50;;
15198;SDS011;7700;48.654;9.070;2022-10-23T00:20:40;4.13;;;3.47;;
15198;SDS011;7700;48.654;9.070;2022-10-23T00:23:06;4.87;;;3.70;;
15198;SDS011;7700;48.654;9.070;2022-10-23T00:25:32;3.93;;;3.40;;
15198;SDS011;7700;48.654;9.070;2022-10-23T00:27:58;5.53;;;3.30;;
15198;SDS011;7700;48.654;9.070;2022-10-23T00:30:24;6.53;;;3.40;;
15198;SDS011;7700;48.654;9.070;2022-10-23T00:32:50;7.63;;;3.73;;
15198;SDS011;7700;48.654;9.070;2022-10-23T00:35:16;4.63;;;4.23;;
15198;SDS011;7700;48.654;9.070;2022-10-23T00:37:42;5.17;;;3.57;;
15198;SDS011;7700;48.654;9.070;2022-10-23T00:40:09;4.53;;;3.90;;
15198;SDS011;7700;48.654;9.070;2022-10-23T00:42:35;9.83;;;3.77;;
15198;SDS011;7700;48.654;9.070;2022-10-23T00:45:09;5.03;;;3.70;;
15198;SDS011;7700;48.654;9.070;2022-10-23T00:47:35;6.27;;;3.60;;
15198;SDS011;7700;48.654;9.070;2022-10-23T00:50:01;3.70;;;3.40;;
15198;SDS011;7700;48.654;9.070;2022-10-23T00:52:27;5.40;;;3.57;;
15198;SDS011;7700;48.654;9.070;2022-10-23T00:54:54;6.27;;;3.80;;
15198;SDS011;7700;48.654;9.070;2022-10-23T00:57:24;6.73;;;3.57;;
15198;SDS011;7700;48.654;9.070;2022-10-23T00:59:50;4.57;;;3.70;;
15198;SDS011;7700;48.654;9.070;2022-10-23T01:02:16;8.43;;;4.67;;
15198;SDS011;7700;48.654;9.070;2022-10-23T01:04:42;4.70;;;3.97;;
15198;SDS011;7700;48.654;9.070;2022-10-23T01:15:04;5.03;;;4.00;;
15198;SDS011;7700;48.654;9.070;2022-10-23T01:20:06;8.00;;;3.90;;
15198;SDS011;7700;48.654;9.070;2022-10-23T01:25:35;3.70;;;2.70;;
15198;SDS011;7700;48.654;9.070;2022-10-23T01:28:04;5.17;;;3.60;;
15198;SDS011;7700;48.654;9.070;2022-10-23T01:30:32;7.93;;;3.23;;
15198;SDS011;7700;48.654;9.070;2022-10-23T01:33:04;4.63;;;3.00;;
15198;SDS011;7700;48.654;9.070;2022-10-23T01:38:32;3.07;;;2.83;;
15198;SDS011;7700;48.654;9.070;2022-10-23T01:44:00;4.50;;;2.83;;
15198;SDS011;7700;48.654;9.070;2022-10-23T01:46:28;4.93;;;3.07;;
15198;SDS011;7700;48.654;9.070;2022-10-23T01:48:55;3.80;;;3.00;;
15198;SDS011;7700;48.654;9.070;2022-10-23T01:51:23;3.63;;;3.07;;
15198;SDS011;7700;48.654;9.070;2022-10-23T01:53:51;7.63;;;3.60;;
15198;SDS011;7700;48.654;9.070;2022-10-23T01:56:22;3.60;;;3.30;;
15198;SDS011;7700;48.654;9.070;2022-10-23T01:59:13;5.40;;;3.00;;
15198;SDS011;7700;48.654;9.070;2022-10-23T02:01:40;4.97;;;2.83;;
15198;SDS011;7700;48.654;9.070;2022-10-23T02:04:07;5.53;;;3.33;;
15198;SDS011;7700;48.654;9.070;2022-10-23T02:06:34;3.90;;;2.80;;
15198;SDS011;7700;48.654;9.070;2022-10-23T02:09:00;5.40;;;2.67;;
15198;SDS011;7700;48.654;9.070;2022-10-23T02:11:26;5.73;;;2.77;;
15198;SDS011;7700;48.654;9.070;2022-10-23T02:13:58;3.43;;;3.13;;
15198;SDS011;7700;48.654;9.070;2022-10-23T02:16:33;6.50;;;3.10;;
15198;SDS011;7700;48.654;9.070;2022-10-23T02:19:20;4.07;;;2.67;;
15198;SDS011;7700;48.654;9.070;2022-10-23T02:22:02;5.13;;;3.07;;
15198;SDS011;7700;48.654;9.070;2022-10-23T02:24:38;4.43;;;3.00;;
15198;SDS011;7700;48.654;9.070;2022-10-23T02:27:10;2.90;;;2.57;;
15198;SDS011;7700;48.654;9.070;2022-10-23T02:29:44;3.90;;;2.57;;
15198;SDS011;7700;48.654;9.070;2022-10-23T02:32:11;5.03;;;3.20;;
15198;SDS011;7700;48.654;9.070;2022-10-23T02:34:39;4.57;;;3.20;;
15198;SDS011;7700;48.654;9.070;2022-10-23T02:37:05;5.60;;;3.10;;
15198;SDS011;7700;48.654;9.070;2022-10-23T02:39:31;4.77;;;3.10;;
15198;SDS011;7700;48.654;9.070;2022-10-23T02:59:58;4.73;;;3.60;;
15198;SDS011;7700;48.654;9.070;2022-10-23T03:02:29;4.20;;;3.27;;
15198;SDS011;7700;48.654;9.070;2022-10-23T03:04:56;3.50;;;3.00;;
15198;SDS011;7700;48.654;9.070;2022-10-23T03:07:24;5.03;;;3.40;;
15198;SDS011;7700;48.654;9.070;2022-10-23T03:09:50;4.80;;;3.23;;
15198;SDS011;7700;48.654;9.070;2022-10-23T03:12:16;3.50;;;2.70;;
15198;SDS011;7700;48.654;9.070;2022-10-23T03:14:42;3.47;;;2.50;;
15198;SDS011;7700;48.654;9.070;2022-10-23T03:17:08;3.77;;;2.33;;
15198;SDS011;7700;48.654;9.070;2022-10-23T03:19:34;3.10;;;2.80;;
15198;SDS011;7700;48.654;9.070;2022-10-23T03:22:01;6.50;;;2.97;;
15198;SDS011;7700;48.654;9.070;2022-10-23T03:24:26;6.33;;;2.80;;
15198;SDS011;7700;48.654;9.070;2022-10-23T03:26:52;3.67;;;2.70;;
15198;SDS011;7700;48.654;9.070;2022-10-23T03:29:18;5.47;;;2.87;;
15198;SDS011;7700;48.654;9.070;2022-10-23T03:31:45;7.87;;;3.33;;
15198;SDS011;7700;48.654;9.070;2022-10-23T03:34:11;2.93;;;2.37;;
15198;SDS011;7700;48.654;9.070;2022-10-23T03:36:39;2.67;;;2.47;;
15198;SDS011;7700;48.654;9.070;2022-10-23T03:39:05;3.00;;;2.20;;
15198;SDS011;7700;48.654;9.070;2022-10-23T03:41:31;3.63;;;2.57;;
15198;SDS011;7700;48.654;9.070;2022-10-23T03:43:57;2.93;;;2.73;;
15198;SDS011;7700;48.654;9.070;2022-10-23T03:46:23;3.70;;;2.53;;
15198;SDS011;7700;48.654;9.070;2022-10-23T03:48:49;3.27;;;2.33;;
15198;SDS011;7700;48.654;9.070;2022-10-23T03:51:15;3.00;;;2.67;;
15198;SDS011;7700;48.654;9.070;2022-10-23T03:53:41;5.57;;;2.80;;
15198;SDS011;7700;48.654;9.070;2022-10-23T03:56:07;4.20;;;2.50;;
15198;SDS011;7700;48.654;9.070;2022-10-23T03:58:33;3.87;;;2.83;;
15198;SDS011;7700;48.654;9.070;2022-10-23T04:00:59;4.53;;;2.70;;
15198;SDS011;7700;48.654;9.070;2022-10-23T04:03:25;5.37;;;2.77;;
15198;SDS011;7700;48.654;9.070;2022-10-23T04:05:51;2.70;;;2.30;;
15198;SDS011;7700;48.654;9.070;2022-10-23T04:08:17;3.70;;;2.70;;
15198;SDS011;7700;48.654;9.070;2022-10-23T04:10:43;4.77;;;2.60;;
15198;SDS011;7700;48.654;9.070;2022-10-23T04:13:09;5.00;;;2.50;;
15198;SDS011;7700;48.654;9.070;2022-10-23T04:15:35;3.73;;;2.50;;
15198;SDS011;7700;48.654;9.070;2022-10-23T04:18:01;3.90;;;2.77;;
15198;SDS011;7700;48.654;9.070;2022-10-23T04:20:27;4.53;;;2.60;;
15198;SDS011;7700;48.654;9.070;2022-10-23T04:22:53;4.37;;;2.60;;
15198;SDS011;7700;48.654;9.070;2022-10-23T04:25:19;5.77;;;2.73;;
15198;SDS011;7700;48.654;9.070;2022-10-23T04:27:45;5.27;;;2.70;;
15198;SDS011;7700;48.654;9.070;2022-10-23T04:30:11;4.33;;;2.27;;
15198;SDS011;7700;48.654;9.070;2022-10-23T04:32:37;3.40;;;2.73;;
15198;SDS011;7700;48.654;9.070;2022-10-23T04:35:03;3.83;;;2.43;;
15198;SDS011;7700;48.654;9.070;2022-10-23T04:37:29;3.13;;;2.10;;
15198;SDS011;7700;48.654;9.070;2022-10-23T04:39:55;5.53;;;2.60;;
15198;SDS011;7700;48.654;9.070;2022-10-23T04:42:21;4.90;;;2.70;;
15198;SDS011;7700;48.654;9.070;2022-10-23T04:44:47;8.23;;;3.10;;
15198;SDS011;7700;48.654;9.070;2022-10-23T04:47:13;3.53;;;2.70;;
15198;SDS011;7700;48.654;9.070;2022-10-23T04:49:39;4.47;;;2.63;;
15198;SDS011;7700;48.654;9.070;2022-10-23T04:52:05;3.03;;;2.70;;
15198;SDS011;7700;48.654;9.070;2022-10-23T04:54:35;3.77;;;2.70;;
15198;SDS011;7700;48.654;9.070;2022-10-23T04:57:02;4.73;;;2.90;;
15198;SDS011;7700;48.654;9.070;2022-10-23T04:59:28;3.83;;;2.50;;
15198;SDS011;7700;48.654;9.070;2022-10-23T05:01:54;4.30;;;3.00;;
15198;SDS011;7700;48.654;9.070;2022-10-23T05:04:20;4.20;;;2.93;;
15198;SDS011;7700;48.654;9.070;2022-10-23T05:06:46;4.30;;;4.00;;
15198;SDS011;7700;48.654;9.070;2022-10-23T05:09:12;3.87;;;3.57;;
15198;SDS011;7700;48.654;9.070;2022-10-23T05:11:38;3.53;;;2.87;;
15198;SDS011;7700;48.654;9.070;2022-10-23T05:14:04;4.13;;;2.60;;
15198;SDS011;7700;48.654;9.070;2022-10-23T05:18:59;5.00;;;2.50;;
15198;SDS011;7700;48.654;9.070;2022-10-23T05:21:26;3.63;;;2.37;;
15198;SDS011;7700;48.654;9.070;2022-10-23T05:23:54;4.07;;;2.23;;
15198;SDS011;7700;48.654;9.070;2022-10-23T05:26:20;3.73;;;2.20;;
15198;SDS011;7700;48.654;9.070;2022-10-23T05:28:46;2.50;;;2.30;;
15198;SDS011;7700;48.654;9.070;2022-10-23T05:31:13;3.93;;;2.70;;
15198;SDS011;7700;48.654;9.070;2022-10-23T05:33:39;4.83;;;2.27;;
15198;SDS011;7700;48.654;9.070;2022-10-23T05:36:06;2.70;;;2.50;;
15198;SDS011;7700;48.654;9.070;2022-10-23T05:38:32;3.93;;;2.80;;
15198;SDS011;7700;48.654;9.070;2022-10-23T05:40:59;5.23;;;2.90;;
15198;SDS011;7700;48.654;9.070;2022-10-23T05:43:25;4.03;;;3.07;;
15198;SDS011;7700;48.654;9.070;2022-10-23T05:45:55;2.63;;;2.40;;
15198;SDS011;7700;48.654;9.070;2022-10-23T05:48:21;4.03;;;2.90;;
15198;SDS011;7700;48.654;9.070;2022-10-23T05:50:47;3.77;;;2.70;;
15198;SDS011;7700;48.654;9.070;2022-10-23T05:53:13;3.90;;;2.50;;
15198;SDS011;7700;48.654;9.070;2022-10-23T05:55:39;3.23;;;1.93;;
15198;SDS011;7700;48.654;9.070;2022-10-23T05:58:05;3.43;;;2.33;;
15198;SDS011;7700;48.654;9.070;2022-10-23T06:00:31;4.63;;;2.70;;
15198;SDS011;7700;48.654;9.070;2022-10-23T06:03:00;3.73;;;2.37;;
15198;SDS011;7700;48.654;9.070;2022-10-23T06:05:26;4.13;;;2.80;;
15198;SDS011;7700;48.654;9.070;2022-10-23T06:07:56;3.33;;;2.93;;
15198;SDS011;7700;48.654;9.070;2022-10-23T06:10:22;4.63;;;2.73;;
15198;SDS011;7700;48.654;9.070;2022-10-23T06:12:48;3.07;;;2.77;;
15198;SDS011;7700;48.654;9.070;2022-10-23T06:15:14;4.93;;;3.23;;
15198;SDS011;7700;48.654;9.070;2022-10-23T06:17:40;4.37;;;3.20;;
15198;SDS011;7700;48.654;9.070;2022-10-23T06:20:06;3.90;;;3.07;;
15198;SDS011;7700;48.654;9.070;2022-10-23T06:22:32;3.90;;;3.50;;
15198;SDS011;7700;48.654;9.070;2022-10-23T06:24:58;7.57;;;4.60;;
15198;SDS011;7700;48.654;9.070;2022-10-23T06:27:24;6.93;;;6.07;;
15198;SDS011;7700;48.654;9.070;2022-10-23T06:29:50;8.13;;;5.97;;
15198;SDS011;7700;48.654;9.070;2022-10-23T06:32:16;7.77;;;7.17;;
15198;SDS011;7700;48.654;9.070;2022-10-23T06:34:43;6.43;;;5.83;;
15198;SDS011;7700;48.654;9.070;2022-10-23T06:37:09;8.23;;;7.50;;
15198;SDS011;7700;48.654;9.070;2022-10-23T06:39:35;10.57;;;9.63;;
15198;SDS011;7700;48.654;9.070;2022-10-23T06:42:01;9.80;;;8.90;;
15198;SDS011;7700;48.654;9.070;2022-10-23T06:44:27;6.73;;;5.37;;
15198;SDS011;7700;48.654;9.070;2022-10-23T06:46:53;5.97;;;5.37;;
15198;SDS011;7700;48.654;9.070;2022-10-23T06:49:19;6.03;;;5.53;;
15198;SDS011;7700;48.654;9.070;2022-10-23T06:51:45;5.60;;;5.00;;
15198;SDS011;7700;48.654;9.070;2022-10-23T06:54:11;8.10;;;4.53;;
15198;SDS011;7700;48.654;9.070;2022-10-23T06:56:37;4.90;;;4.40;;
15198;SDS011;7700;48.654;9.070;2022-10-23T06:59:03;12.87;;;11.27;;
15198;SDS011;7700;48.654;9.070;2022-10-23T07:01:31;16.40;;;13.80;;
15198;SDS011;7700;48.654;9.070;2022-10-23T07:03:57;20.83;;;17.77;;
15198;SDS011;7700;48.654;9.070;2022-10-23T07:06:23;8.85;;;7.93;;
15198;SDS011;7700;48.654;9.070;2022-10-23T07:08:49;6.80;;;6.15;;
15198;SDS011;7700;48.654;9.070;2022-10-23T07:11:16;4.72;;;4.03;;
15198;SDS011;7700;48.654;9.070;2022-10-23T07:13:42;4.53;;;3.90;;
15198;SDS011;7700;48.654;9.070;2022-10-23T07:16:14;4.57;;;3.70;;
15198;SDS011;7700;48.654;9.070;2022-10-23T07:18:41;4.63;;;3.73;;
15198;SDS011;7700;48.654;9.070;2022-10-23T07:21:07;5.80;;;3.75;;
15198;SDS011;7700;48.654;9.070;2022-10-23T07:23:33;4.47;;;3.60;;
15198;SDS011;7700;48.654;9.070;2022-10-23T07:28:32;3.78;;;3.10;;
15198;SDS011;7700;48.654;9.070;2022-10-23T07:30:58;4.22;;;3.22;;
15198;SDS011;7700;48.654;9.070;2022-10-23T07:33:25;4.65;;;3.63;;
15198;SDS011;7700;48.654;9.070;2022-10-23T07:35:51;5.18;;;3.53;;
15198;SDS011;7700;48.654;9.070;2022-10-23T07:38:17;5.10;;;3.80;;
15198;SDS011;7700;48.654;9.070;2022-10-23T07:40:43;3.90;;;3.50;;
15198;SDS011;7700;48.654;9.070;2022-10-23T07:43:09;5.78;;;4.18;;
15198;SDS011;7700;48.654;9.070;2022-10-23T07:45:35;8.77;;;5.50;;
15198;SDS011;7700;48.654;9.070;2022-10-23T07:48:01;9.38;;;6.90;;
15198;SDS011;7700;48.654;9.070;2022-10-23T07:50:27;10.00;;;5.75;;
15198;SDS011;7700;48.654;9.070;2022-10-23T07:52:53;12.02;;;6.75;;
15198;SDS011;7700;48.654;9.070;2022-10-23T07:55:21;10.43;;;6.18;;
15198;SDS011;7700;48.654;9.070;2022-10-23T07:57:47;10.20;;;5.97;;
15198;SDS011;7700;48.654;9.070;2022-10-23T08:00:13;9.68;;;5.68;;
15198;SDS011;7700;48.654;9.070;2022-10-23T08:02:39;5.72;;;4.85;;
15198;SDS011;7700;48.654;9.070;2022-10-23T08:05:05;7.70;;;4.60;;
15198;SDS011;7700;48.654;9.070;2022-10-23T08:07:31;8.00;;;4.97;;
15198;SDS011;7700;48.654;9.070;2022-10-23T08:09:57;6.15;;;4.45;;
15198;SDS011;7700;48.654;9.070;2022-10-23T08:12:23;6.32;;;4.38;;
15198;SDS011;7700;48.654;9.070;2022-10-23T08:14:49;5.32;;;4.53;;
15198;SDS011;7700;48.654;9.070;2022-10-23T08:17:15;9.63;;;5.95;;
15198;SDS011;7700;48.654;9.070;2022-10-23T08:19:41;9.80;;;5.47;;
15198;SDS011;7700;48.654;9.070;2022-10-23T08:22:10;5.53;;;4.97;;
15198;SDS011;7700;48.654;9.070;2022-10-23T08:24:36;5.85;;;5.28;;
15198;SDS011;7700;48.654;9.070;2022-10-23T08:27:02;6.22;;;5.63;;
15198;SDS011;7700;48.654;9.070;2022-10-23T08:29:28;7.20;;;5.45;;
15198;SDS011;7700;48.654;9.070;2022-10-23T08:31:54;6.97;;;6.53;;
15198;SDS011;7700;48.654;9.070;2022-10-23T08:34:21;4.55;;;4.20;;
15198;SDS011;7700;48.654;9.070;2022-10-23T08:36:48;5.45;;;5.07;;
15198;SDS011;7700;48.654;9.070;2022-10-23T08:39:14;3.40;;;3.10;;
15198;SDS011;7700;48.654;9.070;2022-10-23T08:41:41;4.07;;;3.38;;
15198;SDS011;7700;48.654;9.070;2022-10-23T08:46:36;5.18;;;4.35;;
15198;SDS011;7700;48.654;9.070;2022-10-23T08:49:15;5.05;;;4.68;;
15198;SDS011;7700;48.654;9.070;2022-10-23T08:51:46;5.28;;;4.88;;
15198;SDS011;7700;48.654;9.070;2022-10-23T08:54:14;9.90;;;9.43;;
15198;SDS011;7700;48.654;9.070;2022-10-23T08:56:41;18.83;;;18.08;;
15198;SDS011;7700;48.654;9.070;2022-10-23T08:59:13;25.55;;;24.38;;
15198;SDS011;7700;48.654;9.070;2022-10-23T09:04:10;97.68;;;94.25;;
15198;SDS011;7700;48.654;9.070;2022-10-23T09:14:55;196.93;;;190.30;;
15198;SDS011;7700;48.654;9.070;2022-10-23T09:17:26;164.90;;;159.50;;
15198;SDS011;7700;48.654;9.070;2022-10-23T09:19:54;154.93;;;149.77;;
15198;SDS011;7700;48.654;9.070;2022-10-23T09:22:24;113.45;;;109.72;;
15198;SDS011;7700;48.654;9.070;2022-10-23T09:24:50;94.40;;;91.25;;
15198;SDS011;7700;48.654;9.070;2022-10-23T09:27:16;90.85;;;87.95;;
15198;SDS011;7700;48.654;9.070;2022-10-23T09:29:50;86.60;;;83.57;;
15198;SDS011;7700;48.654;9.070;2022-10-23T09:32:16;84.32;;;81.50;;
15198;SDS011;7700;48.654;9.070;2022-10-23T09:34:50;88.07;;;85.28;;
15198;SDS011;7700;48.654;9.070;2022-10-23T09:39:46;98.13;;;94.97;;
15198;SDS011;7700;48.654;9.070;2022-10-23T09:42:20;93.68;;;90.70;;
15198;SDS011;7700;48.654;9.070;2022-10-23T09:44:48;96.65;;;93.63;;
15198;SDS011;7700;48.654;9.070;2022-10-23T09:47:16;102.28;;;98.95;;
15198;SDS011;7700;48.654;9.070;2022-10-23T09:49:52;106.28;;;102.78;;
15198;SDS011;7700;48.654;9.070;2022-10-23T09:52:21;102.63;;;99.03;;
15198;SDS011;7700;48.654;9.070;2022-10-23T09:54:48;109.18;;;105.70;;
15198;SDS011;7700;48.654;9.070;2022-10-23T09:59:51;107.63;;;104.15;;
15198;SDS011;7700;48.654;9.070;2022-10-23T10:03:29;119.75;;;115.80;;
15198;SDS011;7700;48.654;9.070;2022-10-23T10:05:56;118.85;;;114.75;;
15198;SDS011;7700;48.654;9.070;2022-10-23T10:08:31;114.07;;;110.47;;
15198;SDS011;7700;48.654;9.070;2022-10-23T10:11:00;123.60;;;119.78;;
15198;SDS011;7700;48.654;9.070;2022-10-23T10:15:57;121.18;;;117.35;;
15198;SDS011;7700;48.654;9.070;2022-10-23T10:18:27;105.68;;;102.38;;
15198;SDS011;7700;48.654;9.070;2022-10-23T10:24:01;111.78;;;108.35;;
15198;SDS011;7700;48.654;9.070;2022-10-23T10:34:13;116.18;;;112.57;;
15198;SDS011;7700;48.654;9.070;2022-10-23T10:36:49;115.05;;;111.38;;
15198;SDS011;7700;48.654;9.070;2022-10-23T10:39:22;101.43;;;98.28;;
15198;SDS011;7700;48.654;9.070;2022-10-23T10:44:38;114.57;;;111.07;;
15198;SDS011;7700;48.654;9.070;2022-10-23T10:59:49;105.28;;;101.82;;
15198;SDS011;7700;48.654;9.070;2022-10-23T11:02:22;111.13;;;107.55;;
15198;SDS011;7700;48.654;9.070;2022-10-23T11:04:51;115.60;;;111.80;;
15198;SDS011;7700;48.654;9.070;2022-10-23T11:07:20;97.38;;;94.15;;
15198;SDS011;7700;48.654;9.070;2022-10-23T11:09:47;107.03;;;103.57;;
15198;SDS011;7700;48.654;9.070;2022-10-23T11:12:17;111.53;;;108.05;;
15198;SDS011;7700;48.654;9.070;2022-10-23T11:14:44;106.38;;;102.93;;
15198;SDS011;7700;48.654;9.070;2022-10-23T11:17:15;104.00;;;100.72;;
15198;SDS011;7700;48.654;9.070;2022-10-23T11:19:48;98.43;;;95.15;;
15198;SDS011;7700;48.654;9.070;2022-10-23T11:22:23;100.32;;;97.10;;
15198;SDS011;7700;48.654;9.070;2022-10-23T11:24:55;98.93;;;95.75;;
15198;SDS011;7700;48.654;9.070;2022-10-23T11:27:31;90.60;;;87.75;;
15198;SDS011;7700;48.654;9.070;2022-10-23T11:30:07;86.63;;;83.80;;
15198;SDS011;7700;48.654;9.070;2022-10-23T11:35:27;90.65;;;87.65;;
15198;SDS011;7700;48.654;9.070;2022-10-23T11:38:04;91.47;;;88.60;;
15198;SDS011;7700;48.654;9.070;2022-10-23T11:40:33;94.82;;;91.65;;
15198;SDS011;7700;48.654;9.070;2022-10-23T11:42:59;97.18;;;94.15;;
15198;SDS011;7700;48.654;9.070;2022-10-23T11:47:58;89.32;;;86.53;;
15198;SDS011;7700;48.654;9.070;2022-10-23T11:53:25;89.60;;;86.80;;
15198;SDS011;7700;48.654;9.070;2022-10-23T11:55:59;87.82;;;84.85;;
15198;SDS011;7700;48.654;9.070;2022-10-23T12:01:24;88.18;;;85.38;;
15198;SDS011;7700;48.654;9.070;2022-10-23T12:03:53;83.22;;;80.50;;
15198;SDS011;7700;48.654;9.070;2022-10-23T12:06:24;92.15;;;89.10;;
15198;SDS011;7700;48.654;9.070;2022-10-23T12:08:52;85.70;;;82.97;;
15198;SDS011;7700;48.654;9.070;2022-10-23T12:11:26;98.18;;;95.07;;
15198;SDS011;7700;48.654;9.070;2022-10-23T12:13:52;90.28;;;87.38;;
15198;SDS011;7700;48.654;9.070;2022-10-23T12:16:18;89.78;;;86.97;;
15198;SDS011;7700;48.654;9.070;2022-10-23T12:18:48;92.40;;;89.50;;
15198;SDS011;7700;48.654;9.070;2022-10-23T12:21:16;86.22;;;83.40;;
15198;SDS011;7700;48.654;9.070;2022-10-23T12:31:57;91.97;;;88.97;;
15198;SDS011;7700;48.654;9.070;2022-10-23T12:39:31;80.32;;;77.82;;
15198;SDS011;7700;48.654;9.070;2022-10-23T12:42:00;87.05;;;84.22;;
15198;SDS011;7700;48.654;9.070;2022-10-23T12:44:26;94.15;;;91.00;;
15198;SDS011;7700;48.654;9.070;2022-10-23T12:46:53;102.85;;;99.57;;
15198;SDS011;7700;48.654;9.070;2022-10-23T12:49:21;111.07;;;107.60;;
15198;SDS011;7700;48.654;9.070;2022-10-23T12:51:57;110.80;;;107.18;;
15198;SDS011;7700;48.654;9.070;2022-10-23T12:54:24;116.70;;;113.10;;
15198;SDS011;7700;48.654;9.070;2022-10-23T12:56:51;111.57;;;107.88;;
15198;SDS011;7700;48.654;9.070;2022-10-23T12:59:19;120.55;;;116.75;;
15198;SDS011;7700;48.654;9.070;2022-10-23T13:01:46;112.85;;;109.25;;
15198;SDS011;7700;48.654;9.070;2022-10-23T13:04:14;121.82;;;117.82;;
15198;SDS011;7700;48.654;9.070;2022-10-23T13:06:41;126.18;;;122.15;;
15198;SDS011;7700;48.654;9.070;2022-10-23T13:09:21;128.38;;;124.32;;
15198;SDS011;7700;48.654;9.070;2022-10-23T13:11:48;129.43;;;125.30;;
15198;SDS011;7700;48.654;9.070;2022-10-23T13:14:23;114.15;;;110.47;;
15198;SDS011;7700;48.654;9.070;2022-10-23T13:16:57;127.50;;;123.50;;
15198;SDS011;7700;48.654;9.070;2022-10-23T13:19:23;124.50;;;120.53;;
15198;SDS011;7700;48.654;9.070;2022-10-23T13:21:51;115.88;;;112.15;;
15198;SDS011;7700;48.654;9.070;2022-10-23T13:24:18;108.85;;;105.45;;
15198;SDS011;7700;48.654;9.070;2022-10-23T13:26:45;103.00;;;99.70;;
15198;SDS011;7700;48.654;9.070;2022-10-23T13:29:24;114.88;;;111.25;;
15198;SDS011;7700;48.654;9.070;2022-10-23T13:31:51;127.57;;;123.55;;
15198;SDS011;7700;48.654;9.070;2022-10-23T13:34:20;122.53;;;118.47;;
15198;SDS011;7700;48.654;9.070;2022-10-23T13:36:51;121.32;;;117.45;;
15198;SDS011;7700;48.654;9.070;2022-10-23T13:39:21;114.47;;;110.72;;
15198;SDS011;7700;48.654;9.070;2022-10-23T13:41:47;120.97;;;117.18;;
15198;SDS011;7700;48.654;9.070;2022-10-23T13:44:15;106.85;;;103.47;;
15198;SDS011;7700;48.654;9.070;2022-10-23T13:46:41;122.05;;;118.20;;
15198;SDS011;7700;48.654;9.070;2022-10-23T13:49:07;121.75;;;117.90;;
15198;SDS011;7700;48.654;9.070;2022-10-23T13:51:53;105.28;;;101.82;;
15198;SDS011;7700;48.654;9.070;2022-10-23T13:54:21;111.70;;;108.20;;
15198;SDS011;7700;48.654;9.070;2022-10-23T13:56:47;109.60;;;106.10;;
15198;SDS011;7700;48.654;9.070;2022-10-23T13:59:14;111.03;;;107.47;;
15198;SDS011;7700;48.654;9.070;2022-10-23T14:01:40;119.05;;;115.38;;
15198;SDS011;7700;48.654;9.070;2022-10-23T14:04:07;103.63;;;100.00;;
15198;SDS011;7700;48.654;9.070;2022-10-23T14:06:33;103.25;;;99.97;;
15198;SDS011;7700;48.654;9.070;2022-10-23T14:09:01;100.05;;;96.72;;
15198;SDS011;7700;48.654;9.070;2022-10-23T14:11:27;107.07;;;103.68;;
15198;SDS011;7700;48.654;9.070;2022-10-23T14:13:53;90.55;;;87.60;;
15198;SDS011;7700;48.654;9.070;2022-10-23T14:16:19;76.03;;;73.45;;
15198;SDS011;7700;48.654;9.070;2022-10-23T14:18:46;92.10;;;89.07;;
15198;SDS011;7700;48.654;9.070;2022-10-23T14:21:12;93.18;;;90.15;;
15198;SDS011;7700;48.654;9.070;2022-10-23T14:23:39;95.35;;;92.28;;
15198;SDS011;7700;48.654;9.070;2022-10-23T14:26:06;94.25;;;91.25;;
15198;SDS011;7700;48.654;9.070;2022-10-23T14:28:33;88.25;;;85.40;;
15198;SDS011;7700;48.654;9.070;2022-10-23T14:31:12;86.13;;;83.38;;
15198;SDS011;7700;48.654;9.070;2022-10-23T14:33:39;79.07;;;76.60;;
15198;SDS011;7700;48.654;9.070;2022-10-23T14:36:05;89.95;;;86.80;;
15198;SDS011;7700;48.654;9.070;2022-10-23T14:38:31;84.72;;;82.13;;
15198;SDS011;7700;48.654;9.070;2022-10-23T14:40:57;86.30;;;83.43;;
15198;SDS011;7700;48.654;9.070;2022-10-23T14:43:23;81.97;;;78.88;;
15198;SDS011;7700;48.654;9.070;2022-10-23T14:45:50;80.10;;;77.22;;
15198;SDS011;7700;48.654;9.070;2022-10-23T14:48:16;81.40;;;78.60;;
15198;SDS011;7700;48.654;9.070;2022-10-23T14:50:44;171.75;;;165.40;;
15198;SDS011;7700;48.654;9.070;2022-10-23T14:53:11;222.82;;;214.75;;
15198;SDS011;7700;48.654;9.070;2022-10-23T14:55:37;238.80;;;229.93;;
15198;SDS011;7700;48.654;9.070;2022-10-23T14:58:03;221.27;;;213.45;;
15198;SDS011;7700;48.654;9.070;2022-10-23T15:00:29;173.25;;;167.15;;
15198;SDS011;7700;48.654;9.070;2022-10-23T15:02:55;154.85;;;149.50;;
15198;SDS011;7700;48.654;9.070;2022-10-23T15:05:21;145.80;;;140.75;;
15198;SDS011;7700;48.654;9.070;2022-10-23T15:07:47;114.88;;;111.15;;
15198;SDS011;7700;48.654;9.070;2022-10-23T15:10:13;176.68;;;170.68;;
15198;SDS011;7700;48.654;9.070;2022-10-23T15:12:39;237.55;;;229.45;;
15198;SDS011;7700;48.654;9.070;2022-10-23T15:15:06;330.58;;;318.70;;
15198;SDS011;7700;48.654;9.070;2022-10-23T15:17:32;327.17;;;316.15;;
15198;SDS011;7700;48.654;9.070;2022-10-23T15:19:59;329.25;;;317.85;;
15198;SDS011;7700;48.654;9.070;2022-10-23T15:22:25;279.52;;;270.05;;
15198;SDS011;7700;48.654;9.070;2022-10-23T15:24:51;248.10;;;239.98;;
15198;SDS011;7700;48.654;9.070;2022-10-23T15:27:18;225.85;;;218.23;;
15198;SDS011;7700;48.654;9.070;2022-10-23T15:29:44;230.18;;;222.27;;
15198;SDS011;7700;48.654;9.070;2022-10-23T15:32:10;269.85;;;260.30;;
15198;SDS011;7700;48.654;9.070;2022-10-23T15:34:36;290.63;;;280.70;;
15198;SDS011;7700;48.654;9.070;2022-10-23T15:37:05;298.65;;;288.48;;
15198;SDS011;7700;48.654;9.070;2022-10-23T15:39:31;321.58;;;310.60;;
15198;SDS011;7700;48.654;9.070;2022-10-23T15:41:59;293.50;;;283.25;;
15198;SDS011;7700;48.654;9.070;2022-10-23T15:44:26;292.05;;;282.40;;
15198;SDS011;7700;48.654;9.070;2022-10-23T15:46:52;301.75;;;291.05;;
15198;SDS011;7700;48.654;9.070;2022-10-23T15:49:21;280.95;;;271.52;;
15198;SDS011;7700;48.654;9.070;2022-10-23T15:51:48;312.23;;;301.50;;
15198;SDS011;7700;48.654;9.070;2022-10-23T15:54:14;328.45;;;316.90;;
15198;SDS011;7700;48.654;9.070;2022-10-23T15:56:43;330.98;;;318.83;;
15198;SDS011;7700;48.654;9.070;2022-10-23T15:59:09;335.67;;;324.13;;
15198;SDS011;7700;48.654;9.070;2022-10-23T16:01:35;329.88;;;318.50;;
15198;SDS011;7700;48.654;9.070;2022-10-23T16:04:01;342.52;;;330.55;;
15198;SDS011;7700;48.654;9.070;2022-10-23T16:06:27;319.55;;;308.63;;
15198;SDS011;7700;48.654;9.070;2022-10-23T16:08:53;336.25;;;324.73;;
15198;SDS011;7700;48.654;9.070;2022-10-23T16:11:27;335.25;;;323.50;;
15198;SDS011;7700;48.654;9.070;2022-10-23T16:13:54;338.63;;;326.52;;
15198;SDS011;7700;48.654;9.070;2022-10-23T16:16:20;318.83;;;307.33;;
15198;SDS011;7700;48.654;9.070;2022-10-23T16:18:46;259.92;;;250.60;;
15198;SDS011;7700;48.654;9.070;2022-10-23T16:21:17;159.70;;;153.57;;
15198;SDS011;7700;48.654;9.070;2022-10-23T16:23:43;105.57;;;101.38;;
15198;SDS011;7700;48.654;9.070;2022-10-23T16:26:10;92.20;;;88.43;;
15198;SDS011;7700;48.654;9.070;2022-10-23T16:28:36;58.42;;;55.90;;
15198;SDS011;7700;48.654;9.070;2022-10-23T16:31:06;32.20;;;30.60;;
15198;SDS011;7700;48.654;9.070;2022-10-23T16:33:32;25.20;;;24.17;;
15198;SDS011;7700;48.654;9.070;2022-10-23T16:36:05;11.63;;;10.98;;
15198;SDS011;7700;48.654;9.070;2022-10-23T16:38:31;3.30;;;2.90;;
15198;SDS011;7700;48.654;9.070;2022-10-23T16:40:57;3.88;;;2.33;;